Time;durP1;ratioP1;P1;durP2;ratioP2;P2;SDS_P1;SDS_P2;PMS_P1;PMS_P2;Temp;Humidity;BMP_temperature;BMP_pressure;BME280_temperature;BME280_humidity;BME280_pressure;Samples;Min_cycle;Max_cycle;Signal;HPM_P1;HPM_P2
2022/01/06 00:01:34;;;;;;;10.85;1.50;;;25.50;99.90;;;;;;4960992;28;20023;-76
2022/01/06 00:04:01;;;;;;;8.23;1.42;;;25.90;99.90;;;;;;4966235;28;20058;-76
2022/01/06 00:06:30;;;;;;;12.00;2.03;;;26.00;99.90;;;;;;4964463;28;20607;-77
2022/01/06 00:08:59;;;;;;;11.70;1.83;;;26.20;99.90;;;;;;4970541;28;20054;-77
2022/01/06 00:11:26;;;;;;;13.98;1.95;;;26.30;99.90;;;;;;4981210;28;20784;-75
2022/01/06 00:14:01;;;;;;;14.15;1.98;;;26.50;99.90;;;;;;4973048;28;20042;-77
2022/01/06 00:24:24;;;;;;;11.82;1.85;;;27.40;99.90;;;;;;4966805;28;20524;-76
2022/01/06 00:26:51;;;;;;;14.73;2.33;;;27.80;99.90;;;;;;4971748;28;20043;-76
2022/01/06 00:29:19;;;;;;;12.82;2.83;;;27.80;99.90;;;;;;4966315;28;20022;-75
2022/01/06 00:31:47;;;;;;;10.40;2.78;;;28.30;99.90;;;;;;4964453;28;20027;-75
2022/01/06 00:34:15;;;;;;;9.18;1.90;;;28.10;99.90;;;;;;4969481;28;20110;-74
2022/01/06 00:36:43;;;;;;;12.32;1.90;;;28.00;99.90;;;;;;4971020;28;21750;-74
2022/01/06 00:39:12;;;;;;;10.95;1.88;;;27.70;99.90;;;;;;4967953;28;20077;-75
2022/01/06 00:41:39;;;;;;;10.52;2.28;;;27.30;99.90;;;;;;4972009;28;20048;-75
2022/01/06 00:44:08;;;;;;;9.82;2.55;;;27.00;99.90;;;;;;4966017;28;20039;-75
2022/01/06 00:46:36;;;;;;;12.43;1.95;;;26.80;99.90;;;;;;4974094;28;20335;-75
2022/01/06 00:49:05;;;;;;;12.90;2.50;;;26.50;99.90;;;;;;4964837;28;20038;-76
2022/01/06 00:51:32;;;;;;;7.85;1.33;;;26.40;99.90;;;;;;4965180;28;20043;-74
2022/01/06 00:54:00;;;;;;;17.73;1.75;;;26.30;99.90;;;;;;4967531;28;20043;-76
2022/01/06 00:56:27;;;;;;;6.85;1.05;;;26.40;99.90;;;;;;4971716;28;20022;-75
2022/01/06 00:58:54;;;;;;;9.18;2.15;;;26.50;99.90;;;;;;4969490;28;20512;-75
2022/01/06 01:01:22;;;;;;;11.77;3.13;;;26.60;99.90;;;;;;4961464;28;20023;-74
2022/01/06 01:03:49;;;;;;;11.20;1.70;;;26.90;99.90;;;;;;4966597;28;20035;-72
2022/01/06 01:06:16;;;;;;;7.75;1.73;;;27.00;99.90;;;;;;4960146;28;20077;-72
2022/01/06 01:08:44;;;;;;;9.73;2.58;;;27.00;99.90;;;;;;4965958;28;20026;-73
2022/01/06 01:11:11;;;;;;;16.70;2.33;;;27.00;99.90;;;;;;4977358;28;20097;-75
2022/01/06 01:13:54;;;;;;;13.23;2.05;;;26.70;99.90;;;;;;4973766;28;20023;-74
2022/01/06 01:16:27;;;;;;;14.20;2.00;;;26.10;99.90;;;;;;4965811;28;20239;-73
2022/01/06 01:18:59;;;;;;;15.60;3.42;;;25.80;99.90;;;;;;4967518;28;20034;-74
2022/01/06 01:21:28;;;;;;;12.98;2.67;;;25.90;99.90;;;;;;4967503;28;20019;-74
2022/01/06 01:23:57;;;;;;;11.18;1.67;;;26.20;99.90;;;;;;4967561;28;20524;-73
2022/01/06 01:26:26;;;;;;;9.73;1.63;;;26.60;99.90;;;;;;4969166;28;20157;-73
2022/01/06 01:28:53;;;;;;;14.38;2.13;;;26.90;99.90;;;;;;4968400;28;20398;-76
2022/01/06 01:33:49;;;;;;;13.63;2.42;;;27.20;99.90;;;;;;4967597;28;20078;-75
2022/01/06 01:36:17;;;;;;;8.27;1.42;;;27.20;99.90;;;;;;4967807;28;20401;-74
2022/01/06 01:38:44;;;;;;;10.77;1.35;;;27.40;99.90;;;;;;4962955;28;20073;-75
2022/01/06 01:41:12;;;;;;;10.63;1.45;;;27.00;99.90;;;;;;4964442;28;20022;-73
2022/01/06 01:43:40;;;;;;;13.40;2.10;;;26.90;99.90;;;;;;4963069;28;20046;-74
2022/01/06 01:46:14;;;;;;;6.43;1.45;;;27.00;99.90;;;;;;4967252;28;20385;-74
2022/01/06 01:49:13;;;;;;;12.32;1.55;;;27.20;99.90;;;;;;4960852;28;20113;-76
2022/01/06 01:51:31;;;;;;;13.85;2.25;;;27.20;99.90;;;;;;4968014;28;20653;-73
2022/01/06 01:53:58;;;;;;;9.95;1.55;;;27.50;99.90;;;;;;4967506;28;20018;-75
2022/01/06 01:56:26;;;;;;;12.43;2.47;;;27.80;99.90;;;;;;4973284;28;20026;-74
2022/01/06 01:58:53;;;;;;;6.60;1.35;;;27.90;99.90;;;;;;4971808;28;20045;-73
2022/01/06 02:01:20;;;;;;;14.35;2.80;;;28.00;99.90;;;;;;4965883;28;20086;-73
2022/01/06 02:03:48;;;;;;;11.25;1.77;;;28.00;99.90;;;;;;4968970;28;20035;-75
2022/01/06 02:06:15;;;;;;;10.82;2.67;;;27.80;99.90;;;;;;4986852;28;20045;-74
2022/01/06 02:08:43;;;;;;;14.60;2.28;;;27.70;99.90;;;;;;4970734;28;20437;-77
2022/01/06 02:11:11;;;;;;;16.38;2.60;;;27.70;99.90;;;;;;4978347;28;20038;-76
2022/01/06 02:13:52;;;;;;;13.80;2.85;;;27.70;99.90;;;;;;4971984;28;20101;-75
2022/01/06 02:16:25;;;;;;;6.75;1.40;;;27.80;99.90;;;;;;4971537;28;20026;-76
2022/01/06 02:18:54;;;;;;;12.15;2.33;;;27.70;99.90;;;;;;4967563;28;20117;-75
2022/01/06 02:21:21;;;;;;;8.48;2.25;;;27.60;99.90;;;;;;4968028;28;20158;-73
2022/01/06 02:23:49;;;;;;;12.82;2.45;;;27.50;99.90;;;;;;4962901;28;20106;-75
2022/01/06 02:26:16;;;;;;;11.98;2.00;;;27.50;99.90;;;;;;4963707;28;20031;-79
2022/01/06 02:28:43;;;;;;;10.32;2.08;;;27.70;99.90;;;;;;4973265;28;20041;-76
2022/01/06 02:31:11;;;;;;;3.58;0.80;;;27.70;99.90;;;;;;4967278;28;20636;-77
2022/01/06 02:33:39;;;;;;;9.02;1.92;;;27.80;99.90;;;;;;4972186;28;20331;-75
2022/01/06 02:36:06;;;;;;;10.65;1.30;;;27.90;99.90;;;;;;4971670;28;20094;-76
2022/01/06 02:38:34;;;;;;;12.65;1.58;;;27.60;99.90;;;;;;4972603;28;20047;-76
2022/01/06 02:41:02;;;;;;;10.82;1.70;;;27.50;99.90;;;;;;4965187;28;20030;-76
2022/01/06 02:43:30;;;;;;;10.13;1.73;;;27.50;99.90;;;;;;4960013;28;20093;-76
2022/01/06 02:45:58;;;;;;;12.25;2.20;;;27.50;99.90;;;;;;4963896;28;20041;-76
2022/01/06 02:48:25;;;;;;;9.65;2.75;;;27.60;99.90;;;;;;4965708;28;20031;-76
2022/01/06 02:50:53;;;;;;;7.22;1.35;;;27.70;99.90;;;;;;4965969;28;20027;-76
2022/01/06 02:53:21;;;;;;;6.93;1.67;;;27.80;99.90;;;;;;4967516;28;20037;-75
2022/01/06 02:55:52;;;;;;;12.90;1.48;;;27.90;99.90;;;;;;4968099;28;20035;-76
2022/01/06 02:58:21;;;;;;;9.20;1.55;;;28.20;99.90;;;;;;4981026;28;21751;-74
2022/01/06 03:00:50;;;;;;;8.57;2.28;;;28.30;99.90;;;;;;4964537;28;20438;-75
2022/01/06 03:03:17;;;;;;;9.05;2.28;;;28.40;99.90;;;;;;4968262;28;20038;-75
2022/01/06 03:05:45;;;;;;;8.48;1.35;;;28.40;99.90;;;;;;4976753;28;20042;-76
2022/01/06 03:08:13;;;;;;;11.40;1.50;;;28.80;99.90;;;;;;4973971;28;20507;-75
2022/01/06 03:10:43;;;;;;;9.15;1.45;;;29.00;99.90;;;;;;4971260;28;20653;-76
2022/01/06 03:13:11;;;;;;;11.90;1.85;;;29.00;99.90;;;;;;4968470;28;20062;-74
2022/01/06 03:15:38;;;;;;;12.23;1.45;;;28.70;99.90;;;;;;4978201;28;20031;-74
2022/01/06 03:18:06;;;;;;;15.70;1.77;;;28.80;99.90;;;;;;4968816;28;20026;-75
2022/01/06 03:20:34;;;;;;;10.15;2.50;;;28.80;99.90;;;;;;4972005;28;20031;-74
2022/01/06 03:23:01;;;;;;;12.73;1.30;;;29.00;99.90;;;;;;4968054;28;20035;-74
2022/01/06 03:25:29;;;;;;;9.27;1.60;;;29.00;99.90;;;;;;4971032;28;20062;-76
2022/01/06 03:27:56;;;;;;;13.27;1.70;;;28.80;99.90;;;;;;4968901;28;20019;-76
2022/01/06 03:30:24;;;;;;;6.07;1.63;;;28.40;99.90;;;;;;4972148;28;20481;-76
2022/01/06 03:32:53;;;;;;;12.05;1.80;;;28.40;99.90;;;;;;4968077;28;20041;-77
2022/01/06 03:35:23;;;;;;;10.45;1.30;;;28.30;99.90;;;;;;4970980;28;20019;-76
2022/01/06 03:37:50;;;;;;;11.93;1.50;;;28.20;99.90;;;;;;4970169;28;20109;-76
2022/01/06 03:40:18;;;;;;;9.15;1.63;;;28.10;99.90;;;;;;4966234;28;20027;-75
2022/01/06 03:42:46;;;;;;;8.30;1.75;;;28.20;99.90;;;;;;4966568;28;20398;-78
2022/01/06 03:45:15;;;;;;;6.85;1.58;;;28.30;99.90;;;;;;4967040;28;20050;-76
2022/01/06 03:47:44;;;;;;;6.38;0.93;;;28.50;99.90;;;;;;4969204;28;20030;-77
2022/01/06 03:50:14;;;;;;;13.70;1.88;;;28.50;99.90;;;;;;4971570;28;20081;-75
2022/01/06 03:52:41;;;;;;;7.38;1.98;;;28.50;99.90;;;;;;4964388;28;20117;-76
2022/01/06 03:55:12;;;;;;;8.45;1.92;;;28.40;99.90;;;;;;4978397;28;20153;-75
2022/01/06 03:57:40;;;;;;;8.35;1.85;;;28.60;99.90;;;;;;4978247;28;20771;-76
2022/01/06 04:00:11;;;;;;;9.77;2.25;;;28.60;99.90;;;;;;4977631;28;20122;-75
2022/01/06 04:02:39;;;;;;;8.23;1.67;;;28.50;99.90;;;;;;4972171;28;20023;-75
2022/01/06 04:05:07;;;;;;;10.52;2.53;;;28.50;99.90;;;;;;4972331;28;20039;-76
2022/01/06 04:07:35;;;;;;;9.85;1.48;;;28.60;99.90;;;;;;4966862;28;20542;-75
2022/01/06 04:10:03;;;;;;;9.32;1.75;;;28.40;99.90;;;;;;4970574;28;20553;-76
2022/01/06 04:12:34;;;;;;;11.50;1.38;;;28.20;99.90;;;;;;4970825;28;20038;-78
2022/01/06 04:15:01;;;;;;;11.48;1.58;;;28.20;99.90;;;;;;4972886;28;20041;-76
2022/01/06 04:17:29;;;;;;;8.68;1.80;;;28.40;99.90;;;;;;4971122;28;20149;-77
2022/01/06 04:19:56;;;;;;;9.60;2.00;;;28.40;99.90;;;;;;4967079;28;20035;-76
2022/01/06 04:22:23;;;;;;;11.75;1.92;;;28.30;99.90;;;;;;4962400;28;20027;-77
2022/01/06 04:24:51;;;;;;;8.95;2.42;;;28.40;99.90;;;;;;4972687;28;20599;-75
2022/01/06 04:27:18;;;;;;;10.68;1.48;;;28.20;99.90;;;;;;4967947;28;20037;-75
2022/01/06 04:29:45;;;;;;;12.45;1.65;;;28.20;99.90;;;;;;4967683;28;20041;-74
2022/01/06 04:32:13;;;;;;;7.10;1.50;;;28.10;99.90;;;;;;4976139;28;20035;-76
2022/01/06 04:34:40;;;;;;;16.42;2.15;;;28.00;99.90;;;;;;4970830;28;20023;-76
2022/01/06 04:37:11;;;;;;;11.48;2.47;;;27.90;99.90;;;;;;4977951;28;20053;-75
2022/01/06 04:39:38;;;;;;;7.63;1.55;;;27.90;99.90;;;;;;4967318;28;20093;-75
2022/01/06 04:42:07;;;;;;;12.10;1.85;;;27.80;99.90;;;;;;4971785;28;20029;-77
2022/01/06 04:44:34;;;;;;;17.38;2.55;;;27.50;99.90;;;;;;4964460;28;20050;-76
2022/01/06 04:47:02;;;;;;;11.13;1.67;;;27.30;99.90;;;;;;4970559;28;20446;-77
2022/01/06 04:49:29;;;;;;;9.10;1.50;;;27.30;99.90;;;;;;4967023;28;20153;-76
2022/01/06 04:51:56;;;;;;;10.63;2.03;;;27.40;99.90;;;;;;4969448;28;20065;-76
2022/01/06 04:54:24;;;;;;;13.50;1.85;;;27.50;99.90;;;;;;4963018;28;20033;-75
2022/01/06 04:56:51;;;;;;;15.98;1.80;;;27.50;99.90;;;;;;4967331;28;20095;-75
2022/01/06 04:59:18;;;;;;;10.63;1.83;;;27.40;99.90;;;;;;4967934;28;20039;-76
2022/01/06 05:01:46;;;;;;;11.02;2.05;;;27.40;99.90;;;;;;4963542;28;20027;-77
2022/01/06 05:04:13;;;;;;;13.07;2.50;;;27.40;99.90;;;;;;4968938;28;20091;-76
2022/01/06 05:06:41;;;;;;;17.02;2.35;;;27.50;99.90;;;;;;4974314;28;20374;-77
2022/01/06 05:09:08;;;;;;;13.50;2.10;;;27.40;99.90;;;;;;4962629;28;20027;-76
2022/01/06 05:11:35;;;;;;;12.55;2.75;;;27.50;99.90;;;;;;4962521;28;20109;-75
2022/01/06 05:14:03;;;;;;;8.32;1.40;;;27.50;99.90;;;;;;4961507;28;20033;-75
2022/01/06 05:16:30;;;;;;;14.15;1.38;;;27.30;99.90;;;;;;4963147;28;20026;-76
2022/01/06 05:18:57;;;;;;;8.65;1.75;;;27.20;99.90;;;;;;4968168;28;20029;-74
2022/01/06 05:21:29;;;;;;;11.82;1.55;;;27.10;99.90;;;;;;4969674;28;20031;-78
2022/01/06 05:23:56;;;;;;;8.10;1.73;;;27.00;99.90;;;;;;4968282;28;20050;-78
2022/01/06 05:26:24;;;;;;;9.93;1.25;;;26.90;99.90;;;;;;4970481;28;20051;-76
2022/01/06 05:28:51;;;;;;;9.15;3.00;;;26.70;99.90;;;;;;4968954;28;20035;-77
2022/01/06 05:31:19;;;;;;;11.48;4.25;;;26.70;99.90;;;;;;4965638;28;20026;-78
2022/01/06 05:33:47;;;;;;;9.50;2.42;;;26.70;99.90;;;;;;4962113;28;20038;-77
2022/01/06 05:36:14;;;;;;;16.05;2.75;;;26.70;99.90;;;;;;4966266;28;20402;-77
2022/01/06 05:38:41;;;;;;;11.57;2.45;;;26.90;99.90;;;;;;4970385;28;20022;-76
2022/01/06 05:41:08;;;;;;;15.13;2.40;;;27.00;99.90;;;;;;4979183;28;20030;-76
2022/01/06 05:43:36;;;;;;;8.23;1.50;;;26.90;99.90;;;;;;4967080;28;20050;-77
2022/01/06 05:46:06;;;;;;;8.00;2.45;;;26.80;99.90;;;;;;4966245;28;20482;-75
2022/01/06 05:48:33;;;;;;;22.20;2.90;;;26.50;99.90;;;;;;4968230;28;20117;-75
2022/01/06 05:51:01;;;;;;;12.18;1.80;;;26.20;99.90;;;;;;4967319;28;20093;-74
2022/01/06 05:53:29;;;;;;;5.65;0.75;;;26.10;99.90;;;;;;4962551;28;20030;-76
2022/01/06 05:55:57;;;;;;;9.75;1.85;;;26.10;99.90;;;;;;4970436;28;20492;-76
2022/01/06 05:58:24;;;;;;;12.05;1.83;;;26.20;99.90;;;;;;4966764;28;20058;-77
2022/01/06 06:00:52;;;;;;;11.10;2.33;;;26.20;99.90;;;;;;4984478;28;20129;-75
2022/01/06 06:03:19;;;;;;;9.07;2.50;;;26.20;99.90;;;;;;4970956;28;20397;-75
2022/01/06 06:05:47;;;;;;;8.38;1.80;;;26.30;99.90;;;;;;4969086;28;20027;-76
2022/01/06 06:08:14;;;;;;;6.13;1.10;;;26.40;99.90;;;;;;4977557;28;20026;-76
2022/01/06 06:10:41;;;;;;;12.70;1.80;;;26.50;99.90;;;;;;4973893;28;20038;-76
2022/01/06 06:13:09;;;;;;;10.38;2.72;;;26.40;99.90;;;;;;4980581;28;20123;-77
2022/01/06 06:15:36;;;;;;;11.50;1.85;;;26.40;99.90;;;;;;4975254;28;20517;-75
2022/01/06 06:18:09;;;;;;;8.32;1.48;;;26.40;99.90;;;;;;4964631;28;20057;-77
2022/01/06 06:20:37;;;;;;;14.35;2.42;;;26.50;99.90;;;;;;4966435;28;20729;-77
2022/01/06 06:23:05;;;;;;;9.25;1.27;;;26.70;99.90;;;;;;4956228;28;20366;-75
2022/01/06 06:25:33;;;;;;;12.35;2.10;;;26.80;99.90;;;;;;4969480;28;20029;-76
2022/01/06 06:28:01;;;;;;;14.18;1.85;;;26.70;99.90;;;;;;4969572;28;20041;-77
2022/01/06 06:30:28;;;;;;;10.40;2.08;;;26.60;99.90;;;;;;4971533;28;20093;-78
2022/01/06 06:32:55;;;;;;;9.30;1.42;;;26.40;99.90;;;;;;4963377;28;20035;-78
2022/01/06 06:35:23;;;;;;;10.52;1.70;;;26.60;99.90;;;;;;4964862;28;20034;-79
2022/01/06 06:37:50;;;;;;;10.27;1.75;;;26.50;99.90;;;;;;4968333;28;20785;-77
2022/01/06 06:40:22;;;;;;;10.38;1.95;;;26.40;99.90;;;;;;4986991;28;20057;-76
2022/01/06 06:42:50;;;;;;;16.70;3.15;;;26.30;99.90;;;;;;4970885;28;20441;-77
2022/01/06 06:45:19;;;;;;;12.80;2.30;;;26.20;99.90;;;;;;4979655;28;20189;-78
2022/01/06 06:47:47;;;;;;;22.65;2.47;;;26.20;99.90;;;;;;4965035;28;20077;-77
2022/01/06 06:50:16;;;;;;;6.95;1.73;;;26.20;99.90;;;;;;4980529;28;20118;-78
2022/01/06 06:52:44;;;;;;;8.15;1.30;;;26.00;99.90;;;;;;4982200;28;20030;-74
2022/01/06 06:55:13;;;;;;;9.07;1.60;;;26.00;99.90;;;;;;4988591;28;20091;-77
2022/01/06 06:57:41;;;;;;;15.55;2.35;;;26.00;99.90;;;;;;4979282;28;20049;-76
2022/01/06 07:00:10;;;;;;;14.32;1.77;;;25.90;99.90;;;;;;4979468;28;20493;-76
2022/01/06 07:02:38;;;;;;;14.30;3.22;;;25.90;99.90;;;;;;4970334;28;20027;-75
2022/01/06 07:05:06;;;;;;;12.52;1.58;;;26.00;99.90;;;;;;4983331;28;20116;-76
2022/01/06 07:07:34;;;;;;;8.05;1.52;;;26.00;99.90;;;;;;4978343;28;20533;-74
2022/01/06 07:10:03;;;;;;;15.27;2.72;;;25.90;99.90;;;;;;4979140;28;20034;-74
2022/01/06 07:12:30;;;;;;;13.75;2.75;;;25.80;99.90;;;;;;4966354;28;20023;-76
2022/01/06 07:15:01;;;;;;;7.35;1.60;;;25.70;99.90;;;;;;4973960;28;20042;-75
2022/01/06 07:17:28;;;;;;;6.78;1.50;;;25.70;99.90;;;;;;4970926;28;20173;-75
2022/01/06 07:19:55;;;;;;;5.97;1.58;;;25.70;99.90;;;;;;4976286;28;20800;-74
2022/01/06 07:22:23;;;;;;;16.10;3.17;;;25.70;99.90;;;;;;4981280;28;20030;-76
2022/01/06 07:24:50;;;;;;;9.43;1.80;;;25.70;99.90;;;;;;4979695;28;20045;-77
2022/01/06 07:27:18;;;;;;;14.32;2.90;;;25.60;99.90;;;;;;4978169;28;20041;-78
2022/01/06 07:29:45;;;;;;;10.48;2.33;;;25.70;99.90;;;;;;4967891;28;20043;-76
2022/01/06 07:32:12;;;;;;;11.00;1.88;;;25.60;99.90;;;;;;4991014;28;20022;-77
2022/01/06 07:34:40;;;;;;;13.95;2.33;;;25.60;99.90;;;;;;4973983;28;20026;-77
2022/01/06 07:37:07;;;;;;;13.85;2.83;;;25.60;99.90;;;;;;4973833;28;20117;-75
2022/01/06 07:39:34;;;;;;;10.57;1.75;;;25.60;99.90;;;;;;4974130;28;20077;-75
2022/01/06 07:42:02;;;;;;;11.15;1.63;;;25.50;99.90;;;;;;4981419;28;20047;-76
2022/01/06 07:44:29;;;;;;;11.32;2.25;;;25.50;99.90;;;;;;4973043;28;20120;-75
2022/01/06 07:46:57;;;;;;;8.73;1.52;;;25.50;99.90;;;;;;4973050;28;20038;-76
2022/01/06 07:49:24;;;;;;;14.20;2.38;;;25.60;99.90;;;;;;4969855;28;20035;-77
2022/01/06 07:51:54;;;;;;;12.07;2.65;;;25.60;99.90;;;;;;4970437;28;20054;-74
2022/01/06 07:54:21;;;;;;;16.52;2.88;;;25.60;99.90;;;;;;4971613;28;20114;-74
2022/01/06 07:56:50;;;;;;;11.77;1.75;;;25.50;99.90;;;;;;4971979;28;20023;-74
2022/01/06 07:59:17;;;;;;;14.70;2.08;;;25.50;99.90;;;;;;4971265;28;20508;-74
2022/01/06 08:01:44;;;;;;;11.25;1.65;;;25.50;99.90;;;;;;4978060;28;20469;-74
2022/01/06 08:04:12;;;;;;;12.43;1.58;;;25.50;99.90;;;;;;4969725;28;20034;-73
2022/01/06 08:06:39;;;;;;;7.82;1.50;;;25.60;99.90;;;;;;4974988;28;20110;-75
2022/01/06 08:09:06;;;;;;;11.50;1.30;;;25.60;99.90;;;;;;4970100;28;20450;-74
2022/01/06 08:11:34;;;;;;;6.25;1.13;;;25.50;99.90;;;;;;4984297;28;20037;-74
2022/01/06 08:14:01;;;;;;;11.50;1.73;;;25.60;99.90;;;;;;4972110;28;20118;-73
2022/01/06 08:16:28;;;;;;;7.38;1.45;;;25.50;99.90;;;;;;4974086;28;20019;-74
2022/01/06 08:18:56;;;;;;;13.77;1.80;;;25.50;99.90;;;;;;4974801;28;20023;-73
2022/01/06 08:21:23;;;;;;;6.65;1.25;;;25.40;99.90;;;;;;4974156;28;20114;-74
2022/01/06 08:23:51;;;;;;;13.35;2.85;;;25.30;99.90;;;;;;4970323;28;20128;-75
2022/01/06 08:26:18;;;;;;;11.40;2.75;;;25.30;99.90;;;;;;4971687;28;20349;-77
2022/01/06 08:28:48;;;;;;;12.95;3.92;;;25.30;99.90;;;;;;4966555;28;20394;-76
2022/01/06 08:31:18;;;;;;;10.35;1.88;;;25.30;99.90;;;;;;4972752;28;20394;-74
2022/01/06 08:33:47;;;;;;;10.73;1.55;;;25.20;99.90;;;;;;4971886;28;20077;-77
2022/01/06 08:36:15;;;;;;;9.93;1.70;;;25.20;99.90;;;;;;4971273;28;20061;-74
2022/01/06 08:38:43;;;;;;;14.60;2.10;;;25.20;99.90;;;;;;4969528;28;20033;-76
2022/01/06 08:41:10;;;;;;;9.30;2.53;;;25.20;99.90;;;;;;4966212;28;20031;-78
2022/01/06 08:43:37;;;;;;;13.75;2.05;;;25.10;99.90;;;;;;4969436;28;20033;-75
2022/01/06 08:46:05;;;;;;;10.90;2.17;;;25.00;99.90;;;;;;4970873;28;20097;-74
2022/01/06 08:48:32;;;;;;;12.52;2.17;;;25.00;99.90;;;;;;4969950;28;20047;-77
2022/01/06 08:50:59;;;;;;;16.23;1.83;;;25.00;99.90;;;;;;4971756;28;20030;-78
2022/01/06 08:53:27;;;;;;;10.63;2.00;;;25.00;99.90;;;;;;4971390;28;20027;-76
2022/01/06 08:55:54;;;;;;;16.05;2.90;;;25.00;99.90;;;;;;4991288;28;20031;-76
2022/01/06 08:58:22;;;;;;;9.00;1.60;;;25.00;99.90;;;;;;4972402;28;20133;-77
2022/01/06 09:00:50;;;;;;;12.48;2.20;;;25.00;99.90;;;;;;4968725;28;20038;-79
2022/01/06 09:03:17;;;;;;;14.45;2.60;;;25.00;99.90;;;;;;4967788;28;20138;-75
2022/01/06 09:05:44;;;;;;;12.32;2.38;;;25.00;99.90;;;;;;4974161;28;20096;-75
2022/01/06 09:08:12;;;;;;;16.88;3.13;;;25.00;99.90;;;;;;4972401;28;20026;-76
2022/01/06 09:10:40;;;;;;;14.73;2.22;;;25.00;99.90;;;;;;4977382;28;20034;-79
2022/01/06 09:13:08;;;;;;;13.98;2.38;;;25.00;99.90;;;;;;4968990;28;20038;-76
2022/01/06 09:15:35;;;;;;;13.63;2.97;;;24.90;99.90;;;;;;4967146;28;20057;-77
2022/01/06 09:18:02;;;;;;;15.95;3.15;;;24.90;99.90;;;;;;4970117;28;20034;-76
2022/01/06 09:20:32;;;;;;;11.98;1.52;;;24.80;99.90;;;;;;4967381;28;20030;-75
2022/01/06 09:23:00;;;;;;;15.15;3.25;;;24.90;99.90;;;;;;4965408;28;20066;-75
2022/01/06 09:25:28;;;;;;;14.55;2.95;;;24.80;99.90;;;;;;4964278;28;20564;-77
2022/01/06 09:27:55;;;;;;;13.00;2.08;;;24.80;99.90;;;;;;4966834;28;20031;-74
2022/01/06 09:30:25;;;;;;;11.35;2.58;;;24.80;99.90;;;;;;4968371;28;20191;-74
2022/01/06 09:32:53;;;;;;;10.75;2.33;;;24.70;99.90;;;;;;4965596;28;20045;-74
2022/01/06 09:35:21;;;;;;;14.48;2.78;;;24.70;99.90;;;;;;4969207;28;20019;-74
2022/01/06 09:37:49;;;;;;;12.32;2.38;;;24.70;99.90;;;;;;4966105;28;20037;-74
2022/01/06 09:40:17;;;;;;;12.07;2.10;;;24.70;99.90;;;;;;4968161;28;20014;-73
2022/01/06 09:42:44;;;;;;;10.63;1.65;;;24.70;99.90;;;;;;4967269;28;20146;-75
2022/01/06 09:45:13;;;;;;;15.07;2.50;;;24.70;99.90;;;;;;4970282;28;20038;-73
2022/01/06 09:47:41;;;;;;;11.02;2.35;;;24.70;99.90;;;;;;4965668;28;20042;-75
2022/01/06 09:50:11;;;;;;;13.32;2.10;;;24.70;99.90;;;;;;4968125;28;20057;-75
2022/01/06 09:52:39;;;;;;;10.57;2.72;;;24.60;99.90;;;;;;4963893;28;20034;-74
2022/01/06 09:55:08;;;;;;;8.73;1.98;;;24.70;99.90;;;;;;4969708;28;20065;-75
2022/01/06 09:57:35;;;;;;;5.53;1.40;;;24.60;99.90;;;;;;4965819;28;20050;-74
2022/01/06 10:00:07;;;;;;;15.02;2.33;;;24.70;99.90;;;;;;4963317;28;20073;-74
2022/01/06 10:02:38;;;;;;;12.88;2.53;;;24.70;99.90;;;;;;4965527;28;20026;-74
2022/01/06 10:05:06;;;;;;;16.05;2.78;;;24.70;99.90;;;;;;4970049;28;20102;-76
2022/01/06 10:07:39;;;;;;;20.98;3.53;;;24.70;99.90;;;;;;4959059;28;20110;-75
2022/01/06 10:10:10;;;;;;;9.07;2.20;;;24.60;99.90;;;;;;4967343;28;20454;-75
2022/01/06 10:12:39;;;;;;;19.13;4.30;;;24.60;99.90;;;;;;4967483;28;20050;-73
2022/01/06 10:15:19;;;;;;;20.00;4.00;;;24.60;99.90;;;;;;4970392;28;20027;-75
2022/01/06 10:17:46;;;;;;;8.43;1.38;;;24.60;99.90;;;;;;4960836;28;20177;-74
2022/01/06 10:20:20;;;;;;;14.25;2.58;;;24.60;99.90;;;;;;4964958;28;20108;-73
2022/01/06 10:22:58;;;;;;;12.00;1.60;;;24.70;99.90;;;;;;4961821;28;20039;-73
2022/01/06 10:25:32;;;;;;;11.63;2.70;;;24.60;99.90;;;;;;4967768;28;20039;-73
2022/01/06 10:28:00;;;;;;;12.00;1.73;;;24.60;99.90;;;;;;4962919;28;20038;-73
2022/01/06 10:30:28;;;;;;;11.82;2.00;;;24.60;99.90;;;;;;4965016;28;20034;-73
2022/01/06 10:33:04;;;;;;;10.32;2.08;;;24.60;99.90;;;;;;4966659;28;20035;-76
2022/01/06 10:35:31;;;;;;;7.80;2.10;;;24.60;99.90;;;;;;4966023;28;20117;-75
2022/01/06 10:38:00;;;;;;;14.90;2.55;;;24.60;99.90;;;;;;4973869;28;20022;-77
2022/01/06 10:40:28;;;;;;;11.20;1.70;;;24.50;99.90;;;;;;4967765;28;20038;-75
2022/01/06 10:43:05;;;;;;;7.78;2.78;;;24.60;99.90;;;;;;4968026;28;20101;-74
2022/01/06 10:45:35;;;;;;;20.17;3.35;;;24.60;99.90;;;;;;4967316;28;20043;-73
2022/01/06 10:48:04;;;;;;;9.93;2.55;;;24.50;99.90;;;;;;4966486;28;20038;-75
2022/01/06 10:50:38;;;;;;;12.48;2.97;;;24.50;99.90;;;;;;4965594;28;20066;-75
2022/01/06 10:53:10;;;;;;;10.38;1.42;;;24.50;99.90;;;;;;4966508;28;20038;-75
2022/01/06 10:55:41;;;;;;;9.35;1.38;;;24.50;99.90;;;;;;4964180;28;20030;-75
2022/01/06 10:58:20;;;;;;;14.13;2.38;;;24.50;99.90;;;;;;4971337;28;20039;-78
2022/01/06 11:00:57;;;;;;;19.67;2.83;;;24.40;99.90;;;;;;4973118;28;20393;-75
2022/01/06 11:03:33;;;;;;;9.43;2.10;;;24.40;99.90;;;;;;4966013;28;20459;-75
2022/01/06 11:06:03;;;;;;;7.50;2.70;;;24.40;99.90;;;;;;4975467;28;20030;-77
2022/01/06 11:08:39;;;;;;;8.80;1.80;;;24.40;99.90;;;;;;4975400;28;20031;-77
2022/01/06 11:13:46;;;;;;;6.40;1.73;;;24.30;99.90;;;;;;4964576;28;20038;-78
2022/01/06 11:16:15;;;;;;;14.35;1.55;;;24.20;99.90;;;;;;4971260;28;20027;-77
2022/01/06 11:18:49;;;;;;;11.07;1.92;;;24.20;99.90;;;;;;4970364;28;20086;-78
2022/01/06 11:21:42;;;;;;;10.70;1.58;;;24.20;99.90;;;;;;4967692;28;20359;-79
2022/01/06 11:24:12;;;;;;;13.25;1.92;;;24.20;99.90;;;;;;4962801;28;20069;-77
2022/01/06 11:26:41;;;;;;;17.00;2.40;;;24.20;99.90;;;;;;4969666;28;20031;-78
2022/01/06 11:29:09;;;;;;;12.43;3.15;;;24.20;99.90;;;;;;4982485;28;20393;-78
2022/01/06 11:31:44;;;;;;;16.85;2.55;;;24.20;99.90;;;;;;4971579;28;20022;-78
2022/01/06 11:34:17;;;;;;;10.50;2.50;;;24.20;99.90;;;;;;4975732;28;20457;-78
2022/01/06 11:36:46;;;;;;;27.52;2.55;;;24.20;99.90;;;;;;4960477;28;20586;-78
2022/01/06 11:39:31;;;;;;;11.40;1.95;;;24.20;99.90;;;;;;4966816;28;20105;-77
2022/01/06 11:42:00;;;;;;;11.05;2.53;;;24.10;99.90;;;;;;4963509;28;20058;-78
2022/01/06 11:44:34;;;;;;;16.70;2.78;;;24.20;99.90;;;;;;4961187;28;20369;-76
2022/01/06 11:47:03;;;;;;;11.80;2.55;;;24.20;99.90;;;;;;4972045;28;20078;-78
2022/01/06 11:49:31;;;;;;;13.27;1.77;;;24.20;99.90;;;;;;4972203;28;20034;-78
2022/01/06 11:52:16;;;;;;;18.55;2.47;;;24.20;99.90;;;;;;4970730;28;20370;-78
2022/01/06 11:54:51;;;;;;;13.95;2.10;;;24.20;99.90;;;;;;4969923;28;20045;-79
2022/01/06 11:57:32;;;;;;;18.00;3.42;;;24.20;99.90;;;;;;4970736;28;20026;-79
2022/01/06 12:00:13;;;;;;;9.15;1.95;;;24.20;99.90;;;;;;4970849;28;20086;-79
2022/01/06 12:02:42;;;;;;;14.98;2.78;;;24.20;99.90;;;;;;4972055;28;20513;-78
2022/01/06 12:05:10;;;;;;;12.32;2.55;;;24.20;99.90;;;;;;4970872;28;20043;-78
2022/01/06 12:07:48;;;;;;;16.88;4.13;;;24.20;99.90;;;;;;4968352;28;20031;-78
2022/01/06 12:10:16;;;;;;;12.30;1.98;;;24.20;99.90;;;;;;4965340;28;20037;-79
2022/01/06 12:12:43;;;;;;;15.40;1.98;;;24.30;99.90;;;;;;4963591;28;20027;-78
2022/01/06 12:15:16;;;;;;;12.63;2.50;;;24.20;99.90;;;;;;4958391;28;20096;-78
2022/01/06 12:17:52;;;;;;;13.95;2.25;;;24.20;99.90;;;;;;4958328;28;20027;-79
2022/01/06 12:20:25;;;;;;;12.60;3.70;;;24.20;99.90;;;;;;4961979;28;20446;-80
2022/01/06 12:22:53;;;;;;;17.80;3.75;;;24.20;99.90;;;;;;4968030;28;20089;-78
2022/01/06 12:25:28;;;;;;;11.45;2.22;;;24.20;99.90;;;;;;4970237;28;20212;-79
2022/01/06 12:27:57;;;;;;;15.75;2.65;;;24.10;99.90;;;;;;4965906;28;20027;-78
2022/01/06 12:30:28;;;;;;;14.07;2.70;;;24.10;99.90;;;;;;4964846;28;20114;-79
2022/01/06 12:33:01;;;;;;;15.23;3.63;;;24.10;99.90;;;;;;4970960;28;20034;-78
2022/01/06 12:35:49;;;;;;;12.68;1.75;;;24.10;99.90;;;;;;4970941;28;20035;-77
2022/01/06 12:38:25;;;;;;;11.45;1.75;;;24.10;99.90;;;;;;4969216;28;20482;-78
2022/01/06 12:40:53;;;;;;;12.02;2.35;;;24.10;99.90;;;;;;4966851;28;20122;-79
2022/01/06 12:43:25;;;;;;;13.57;1.92;;;24.10;99.90;;;;;;4966841;28;20078;-79
2022/01/06 12:46:12;;;;;;;12.95;2.05;;;24.10;99.90;;;;;;4977398;28;20042;-78
2022/01/06 12:48:48;;;;;;;13.68;1.85;;;24.10;99.90;;;;;;4978726;28;20022;-78
2022/01/06 12:51:21;;;;;;;12.77;2.78;;;24.10;99.90;;;;;;4969898;28;20035;-79
2022/01/06 12:53:51;;;;;;;17.33;2.58;;;24.10;99.90;;;;;;4969310;28;20030;-79
2022/01/06 12:56:33;;;;;;;15.85;2.88;;;24.00;99.90;;;;;;4974818;28;20027;-78
2022/01/06 12:59:06;;;;;;;8.70;2.00;;;24.00;99.90;;;;;;4969697;28;20027;-78
2022/01/06 13:01:34;;;;;;;13.73;1.55;;;23.90;99.90;;;;;;4962610;28;20478;-77
2022/01/06 13:04:02;;;;;;;16.48;3.08;;;23.90;99.90;;;;;;4969789;28;20058;-86